createdAt,value
2023-12-09T00:01:01.393Z,26.25
2023-12-09T00:03:29.012Z,22.77
2023-12-09T00:05:56.478Z,19.75
2023-12-09T00:08:23.867Z,22.55
2023-12-09T00:10:51.392Z,21.35
2023-12-09T00:13:18.793Z,23.35
2023-12-09T00:15:46.104Z,21.55
2023-12-09T00:18:14.318Z,21.55
2023-12-09T00:20:41.837Z,27.33
2023-12-09T00:23:10.490Z,23.42
2023-12-09T00:25:38.106Z,21.52
2023-12-09T00:28:05.661Z,18.67
2023-12-09T00:30:33.259Z,21.35
2023-12-09T00:33:00.957Z,22.15
2023-12-09T00:35:28.468Z,24.38
2023-12-09T00:37:55.741Z,20.45
2023-12-09T00:40:23.861Z,18.70
2023-12-09T00:42:51.109Z,20.48
2023-12-09T00:45:18.619Z,20.27
2023-12-09T00:47:46.090Z,23.83
2023-12-09T00:50:13.576Z,21.30
2023-12-09T00:52:40.839Z,20.25
2023-12-09T00:55:08.611Z,19.92
2023-12-09T00:57:35.849Z,23.00
2023-12-09T01:00:05.618Z,20.13
2023-12-09T01:02:33.471Z,18.25
2023-12-09T01:05:00.841Z,21.20
2023-12-09T01:07:28.456Z,22.20
2023-12-09T01:09:55.790Z,22.50
2023-12-09T01:12:23.179Z,20.98
2023-12-09T01:14:50.673Z,20.63
2023-12-09T01:17:18.172Z,20.48
2023-12-09T01:19:45.605Z,24.13
2023-12-09T01:22:13.713Z,21.83
2023-12-09T01:24:41.129Z,22.67
2023-12-09T01:27:08.524Z,23.10
2023-12-09T01:29:37.811Z,20.25
2023-12-09T01:32:05.364Z,22.27
2023-12-09T01:34:32.915Z,21.05
2023-12-09T01:37:00.656Z,20.17
2023-12-09T01:39:28.701Z,21.48
2023-12-09T01:41:57.463Z,20.88
2023-12-09T01:44:24.702Z,19.50
2023-12-09T01:46:52.242Z,17.55
2023-12-09T01:49:19.625Z,19.65
2023-12-09T01:51:47.275Z,19.48
2023-12-09T01:54:15.856Z,17.85
2023-12-09T01:56:43.594Z,19.38
2023-12-09T01:59:10.874Z,17.52
2023-12-09T02:01:39.072Z,16.45
2023-12-09T02:04:07.495Z,16.73
2023-12-09T02:06:35.246Z,18.42
2023-12-09T02:09:03.386Z,18.00
2023-12-09T02:11:36.524Z,18.83
2023-12-09T02:14:12.276Z,17.98
2023-12-09T02:16:45.353Z,21.55
2023-12-09T02:19:14.700Z,20.42
2023-12-09T02:22:05.005Z,15.60
2023-12-09T02:24:33.515Z,18.33
2023-12-09T02:29:53.994Z,16.73
2023-12-09T02:32:23.751Z,16.50
2023-12-09T02:34:53.431Z,17.67
2023-12-09T02:37:22.771Z,17.00
2023-12-09T02:39:50.395Z,14.77
2023-12-09T02:42:19.121Z,15.57
2023-12-09T02:44:46.966Z,18.85
2023-12-09T02:47:15.840Z,15.88
2023-12-09T02:49:44.378Z,16.02
2023-12-09T02:52:12.488Z,16.67
2023-12-09T02:54:39.969Z,18.45
2023-12-09T02:57:07.325Z,17.50
2023-12-09T02:59:35.519Z,18.88
2023-12-09T03:02:02.763Z,19.58
2023-12-09T03:04:30.354Z,15.93
2023-12-09T03:06:59.015Z,18.05
2023-12-09T03:09:26.462Z,17.63
2023-12-09T03:11:56.003Z,19.80
2023-12-09T03:14:25.179Z,14.07
2023-12-09T03:16:52.439Z,15.88
2023-12-09T03:19:19.872Z,16.33
2023-12-09T03:21:47.204Z,12.20
2023-12-09T03:24:14.604Z,15.98
2023-12-09T03:26:41.854Z,17.95
2023-12-09T03:29:09.255Z,18.48
2023-12-09T03:31:42.196Z,17.05
2023-12-09T03:34:09.878Z,15.23
2023-12-09T03:39:05.202Z,15.02
2023-12-09T03:41:32.464Z,16.63
2023-12-09T03:44:00.086Z,16.30
2023-12-09T03:46:27.333Z,16.90
2023-12-09T03:51:22.344Z,15.82
2023-12-09T03:53:50.129Z,18.25
2023-12-09T03:56:23.264Z,22.00
2023-12-09T03:58:51.705Z,13.52
2023-12-09T04:03:47.098Z,17.42
2023-12-09T04:06:14.414Z,16.60
2023-12-09T04:08:41.878Z,15.60
2023-12-09T04:11:09.250Z,15.77
2023-12-09T04:13:36.924Z,13.60
2023-12-09T04:16:06.008Z,15.85
2023-12-09T04:18:33.604Z,14.98
2023-12-09T04:21:01.128Z,16.08
2023-12-09T04:23:28.498Z,15.57
2023-12-09T04:25:55.803Z,15.20
2023-12-09T04:28:23.417Z,16.55
2023-12-09T04:30:50.645Z,15.77
2023-12-09T04:33:18.089Z,14.65
2023-12-09T04:35:45.433Z,13.05
2023-12-09T04:38:12.928Z,14.43
2023-12-09T04:40:40.390Z,14.27
2023-12-09T04:43:08.009Z,13.65
2023-12-09T04:45:35.455Z,19.85
2023-12-09T04:48:04.981Z,15.80
2023-12-09T04:50:32.465Z,18.83
2023-12-09T04:52:59.761Z,15.88
2023-12-09T04:55:27.931Z,15.05
2023-12-09T04:57:56.030Z,17.98
2023-12-09T05:00:23.398Z,17.15
2023-12-09T05:02:52.269Z,14.85
2023-12-09T05:05:20.433Z,14.57
2023-12-09T05:07:49.086Z,13.02
2023-12-09T05:10:16.685Z,12.75
2023-12-09T05:12:44.028Z,14.50
2023-12-09T05:15:12.314Z,15.82
2023-12-09T05:17:39.748Z,15.13
2023-12-09T05:20:08.148Z,15.60
2023-12-09T05:22:35.416Z,16.98
2023-12-09T05:25:03.815Z,15.95
2023-12-09T05:29:58.550Z,16.42
2023-12-09T05:32:26.081Z,12.68
2023-12-09T05:34:53.697Z,12.35
2023-12-09T05:37:23.017Z,16.25
2023-12-09T05:39:50.549Z,15.32
2023-12-09T05:42:18.008Z,15.40
2023-12-09T05:44:45.407Z,15.43
2023-12-09T05:47:12.810Z,15.60
2023-12-09T05:49:40.345Z,14.60
2023-12-09T05:52:07.654Z,36.42
2023-12-09T05:54:38.408Z,19.50
2023-12-09T05:57:06.425Z,17.00
2023-12-09T05:59:33.654Z,15.38
2023-12-09T06:02:01.271Z,17.33
2023-12-09T06:04:28.633Z,18.63
2023-12-09T06:06:56.104Z,15.93
2023-12-09T06:09:23.608Z,19.92
2023-12-09T06:11:52.867Z,16.45
2023-12-09T06:14:20.157Z,18.60
2023-12-09T06:16:47.640Z,17.42
2023-12-09T06:19:15.148Z,16.02
2023-12-09T06:21:42.581Z,19.35
2023-12-09T06:24:09.973Z,15.43
2023-12-09T06:26:44.093Z,17.83
2023-12-09T06:29:16.122Z,20.15
2023-12-09T06:31:44.300Z,17.48
2023-12-09T06:34:12.203Z,17.73
2023-12-09T06:36:39.814Z,23.48
2023-12-09T06:39:07.211Z,19.48
2023-12-09T06:41:34.576Z,16.65
2023-12-09T06:44:01.940Z,16.40
2023-12-09T06:46:29.294Z,15.65
2023-12-09T06:48:56.699Z,15.73
2023-12-09T06:51:24.271Z,15.75
2023-12-09T06:53:51.596Z,14.80
2023-12-09T06:56:21.577Z,16.50
2023-12-09T06:58:49.539Z,18.45
2023-12-09T07:01:29.661Z,21.38
2023-12-09T07:03:57.658Z,16.02
2023-12-09T07:06:30.670Z,14.60
2023-12-09T07:08:58.760Z,14.05
2023-12-09T07:11:26.223Z,15.85
2023-12-09T07:13:53.630Z,16.30
2023-12-09T07:16:21.052Z,13.95
2023-12-09T07:18:52.849Z,15.38
2023-12-09T07:21:20.456Z,17.00
2023-12-09T07:23:47.842Z,13.98
2023-12-09T07:28:44.448Z,16.85
2023-12-09T07:31:12.762Z,15.13
2023-12-09T07:36:08.524Z,13.05
2023-12-09T07:38:36.143Z,14.10
2023-12-09T07:41:04.021Z,15.02
2023-12-09T07:43:33.032Z,16.98
2023-12-09T07:46:00.570Z,16.65
2023-12-09T07:48:28.988Z,15.18
2023-12-09T07:50:56.488Z,17.10
2023-12-09T07:53:24.626Z,17.52
2023-12-09T07:55:52.113Z,14.30
2023-12-09T07:58:19.519Z,15.13
2023-12-09T08:00:47.196Z,12.73
2023-12-09T08:03:14.666Z,14.60
2023-12-09T08:05:43.623Z,13.70
2023-12-09T08:08:12.562Z,14.20
2023-12-09T08:10:39.924Z,14.50
2023-12-09T08:13:09.956Z,16.35
2023-12-09T08:15:38.810Z,14.55
2023-12-09T08:18:06.521Z,19.08
2023-12-09T08:20:35.925Z,15.77
2023-12-09T08:23:04.982Z,15.40
2023-12-09T08:25:32.204Z,21.05
2023-12-09T08:27:59.612Z,18.42
2023-12-09T08:30:27.032Z,16.33
2023-12-09T08:32:54.938Z,25.05
2023-12-09T08:35:22.525Z,20.58
2023-12-09T08:37:50.296Z,23.52
2023-12-09T08:40:18.627Z,27.80
2023-12-09T08:42:47.163Z,20.45
2023-12-09T08:45:16.773Z,19.83
2023-12-09T08:47:45.718Z,21.33
2023-12-09T08:52:45.264Z,21.20
2023-12-09T08:55:12.503Z,26.05
2023-12-09T08:57:40.063Z,25.38
2023-12-09T09:00:09.805Z,20.80
2023-12-09T09:02:38.083Z,22.48
2023-12-09T09:05:06.391Z,22.10
2023-12-09T09:07:37.821Z,21.65
2023-12-09T09:10:05.877Z,20.98
2023-12-09T09:12:33.216Z,22.63
2023-12-09T09:15:04.597Z,23.85
2023-12-09T09:17:36.652Z,24.42
2023-12-09T09:20:06.993Z,25.40
2023-12-09T09:22:35.368Z,23.67
2023-12-09T09:27:30.439Z,23.30
2023-12-09T09:29:57.890Z,26.15
2023-12-09T09:32:26.016Z,26.17
2023-12-09T09:34:56.100Z,29.20
2023-12-09T09:37:24.571Z,32.40
2023-12-09T09:39:52.743Z,31.42
2023-12-09T09:42:37.977Z,27.33
2023-12-09T09:45:27.137Z,31.75
2023-12-09T09:48:00.448Z,32.20
2023-12-09T09:50:28.274Z,40.80
2023-12-09T09:52:55.730Z,41.47
2023-12-09T09:55:24.338Z,36.65
2023-12-09T09:57:52.337Z,40.50
2023-12-09T10:00:21.078Z,35.30
2023-12-09T10:02:52.408Z,38.00
2023-12-09T10:05:23.732Z,38.45
2023-12-09T10:07:53.245Z,33.00
2023-12-09T10:10:20.938Z,37.42
2023-12-09T10:12:48.398Z,33.25
2023-12-09T10:15:15.741Z,42.45
2023-12-09T10:17:44.025Z,44.13
2023-12-09T10:20:12.430Z,38.65
2023-12-09T10:22:41.271Z,35.65
2023-12-09T10:25:09.229Z,34.60
2023-12-09T10:27:36.657Z,34.05
2023-12-09T10:30:04.897Z,31.88
2023-12-09T10:35:04.522Z,31.50
2023-12-09T10:37:33.304Z,37.30
2023-12-09T10:40:05.334Z,37.47
2023-12-09T10:42:33.092Z,39.40
2023-12-09T10:45:05.089Z,36.53
2023-12-09T10:47:32.640Z,31.45
2023-12-09T10:50:00.084Z,30.70
2023-12-09T10:52:27.800Z,30.27
2023-12-09T10:54:55.388Z,28.65
2023-12-09T10:57:25.835Z,22.77
2023-12-09T10:59:55.272Z,21.27
2023-12-09T11:02:22.981Z,18.58
2023-12-09T11:04:51.826Z,20.20
2023-12-09T11:07:19.753Z,16.77
2023-12-09T11:09:47.866Z,15.02
2023-12-09T11:12:29.749Z,16.20
2023-12-09T11:15:09.090Z,15.43
2023-12-09T11:17:39.770Z,19.27
2023-12-09T11:20:16.159Z,19.67
2023-12-09T11:22:46.722Z,22.77
2023-12-09T11:25:27.500Z,23.63
2023-12-09T11:27:57.226Z,34.45
2023-12-09T11:30:38.880Z,22.98
2023-12-09T11:33:07.454Z,14.90
2023-12-09T11:35:36.451Z,10.20
2023-12-09T11:38:06.964Z,8.65
2023-12-09T11:40:34.754Z,7.55
2023-12-09T11:43:09.672Z,8.32
2023-12-09T11:45:38.458Z,8.50
2023-12-09T11:48:06.896Z,10.73
2023-12-09T11:50:34.584Z,9.20
2023-12-09T11:53:01.846Z,8.57
2023-12-09T11:55:30.678Z,11.95
2023-12-09T11:57:58.240Z,12.68
2023-12-09T12:00:25.533Z,9.95
2023-12-09T12:02:53.010Z,8.23
2023-12-09T12:05:21.287Z,10.07
2023-12-09T12:07:49.151Z,10.27
2023-12-09T12:10:16.565Z,9.52
2023-12-09T12:12:45.821Z,11.35
2023-12-09T12:15:14.072Z,11.30
2023-12-09T12:17:45.363Z,12.70
2023-12-09T12:20:14.132Z,18.15
2023-12-09T12:22:42.388Z,15.57
2023-12-09T12:25:10.891Z,14.85
2023-12-09T12:27:46.628Z,18.27
2023-12-09T12:30:17.376Z,21.77
2023-12-09T12:32:56.530Z,18.52
2023-12-09T12:35:26.479Z,26.52
2023-12-09T12:37:56.516Z,24.08
2023-12-09T12:40:24.068Z,27.67
2023-12-09T12:42:51.617Z,27.75
2023-12-09T12:45:27.048Z,28.33
2023-12-09T12:47:56.400Z,26.42
2023-12-09T12:50:23.785Z,27.02
2023-12-09T12:52:52.336Z,25.48
2023-12-09T12:55:19.821Z,27.08
2023-12-09T13:00:15.979Z,30.02
2023-12-09T13:02:44.716Z,21.67
2023-12-09T13:05:12.776Z,16.58
2023-12-09T13:10:13.096Z,14.48
2023-12-09T13:12:40.634Z,15.70
2023-12-09T13:15:08.749Z,18.73
2023-12-09T13:17:36.852Z,17.13
2023-12-09T13:22:32.063Z,15.07
2023-12-09T13:24:59.571Z,12.13
2023-12-09T13:27:27.932Z,18.02
2023-12-09T13:29:55.915Z,26.92
2023-12-09T13:32:23.177Z,22.77
2023-12-09T13:34:52.572Z,18.80
2023-12-09T13:37:20.205Z,15.23
2023-12-09T13:39:47.681Z,13.93
2023-12-09T13:42:16.323Z,15.68
2023-12-09T13:44:43.977Z,16.92
2023-12-09T13:47:11.346Z,12.55
2023-12-09T13:49:38.864Z,10.50
2023-12-09T13:52:06.770Z,14.55
2023-12-09T13:54:34.610Z,15.88
2023-12-09T13:57:02.103Z,21.30
2023-12-09T13:59:29.681Z,18.17
2023-12-09T14:01:57.824Z,21.70
2023-12-09T14:06:52.632Z,19.67
2023-12-09T14:09:20.213Z,20.10
2023-12-09T14:11:47.507Z,18.23
2023-12-09T14:14:15.274Z,20.95
2023-12-09T14:16:44.070Z,15.73
2023-12-09T14:19:14.502Z,16.30
2023-12-09T14:21:42.004Z,14.77
2023-12-09T14:24:09.996Z,14.90
2023-12-09T14:26:37.701Z,16.58
2023-12-09T14:29:05.102Z,12.00
2023-12-09T14:31:32.540Z,13.50
2023-12-09T14:34:03.182Z,12.00
2023-12-09T14:36:31.255Z,12.88
2023-12-09T14:38:58.653Z,13.43
2023-12-09T14:41:26.097Z,13.18
2023-12-09T14:43:59.679Z,14.55
2023-12-09T14:46:33.139Z,13.05
2023-12-09T14:49:01.588Z,13.73
2023-12-09T14:51:40.242Z,15.05
2023-12-09T14:54:16.525Z,17.48
2023-12-09T14:56:46.912Z,15.93
2023-12-09T14:59:16.715Z,14.82
2023-12-09T15:01:50.408Z,15.63
2023-12-09T15:04:18.653Z,20.80
2023-12-09T15:06:48.153Z,21.95
2023-12-09T15:09:17.602Z,28.38
2023-12-09T15:11:45.010Z,28.13
2023-12-09T15:14:12.510Z,26.50
2023-12-09T15:16:39.976Z,28.92
2023-12-09T15:19:09.975Z,26.20
2023-12-09T15:21:37.931Z,23.02
2023-12-09T15:24:06.924Z,22.38
2023-12-09T15:26:35.240Z,24.02
2023-12-09T15:29:02.579Z,20.23
2023-12-09T15:31:31.842Z,22.83
2023-12-09T15:34:00.483Z,23.50
2023-12-09T15:36:28.484Z,29.58
2023-12-09T15:38:55.922Z,25.98
2023-12-09T15:41:23.466Z,29.10
2023-12-09T15:43:51.226Z,29.80
2023-12-09T15:46:19.089Z,29.02
2023-12-09T15:48:46.831Z,35.63
2023-12-09T15:51:15.506Z,37.55
2023-12-09T15:53:43.143Z,45.33
2023-12-09T15:56:10.908Z,45.47
2023-12-09T15:58:38.379Z,54.80
2023-12-09T16:01:06.153Z,56.15
2023-12-09T16:03:33.869Z,57.60
2023-12-09T16:06:02.368Z,58.90
2023-12-09T16:10:57.296Z,57.10
2023-12-09T16:13:25.024Z,56.60
2023-12-09T16:15:53.073Z,48.35
2023-12-09T16:18:20.681Z,49.75
2023-12-09T16:20:48.096Z,46.47
2023-12-09T16:23:15.650Z,44.33
2023-12-09T16:25:43.149Z,45.50
2023-12-09T16:28:10.569Z,43.72
2023-12-09T16:30:38.623Z,41.63
2023-12-09T16:33:06.261Z,43.85
2023-12-09T16:35:33.753Z,50.88
2023-12-09T16:38:01.115Z,49.83
2023-12-09T16:40:28.877Z,34.78
2023-12-09T16:42:56.509Z,39.22
2023-12-09T16:45:24.258Z,29.60
2023-12-09T16:47:52.769Z,30.23
2023-12-09T16:50:20.326Z,30.08
2023-12-09T16:52:47.627Z,27.85
2023-12-09T16:55:16.492Z,27.60
2023-12-09T16:57:45.031Z,25.00
2023-12-09T17:00:12.790Z,25.00
2023-12-09T17:02:40.346Z,24.73
2023-12-09T17:05:11.345Z,28.77
2023-12-09T17:07:39.105Z,29.13
2023-12-09T17:10:08.881Z,22.65
2023-12-09T17:12:38.104Z,18.83
2023-12-09T17:15:05.853Z,18.17
2023-12-09T17:17:33.482Z,20.98
2023-12-09T17:20:00.845Z,26.58
2023-12-09T17:22:32.466Z,30.70
2023-12-09T17:25:00.105Z,27.80
2023-12-09T17:27:27.882Z,26.10
2023-12-09T17:29:55.309Z,24.05
2023-12-09T17:32:22.898Z,30.25
2023-12-09T17:34:50.959Z,32.08
2023-12-09T17:37:18.526Z,34.90
2023-12-09T17:39:46.050Z,31.75
2023-12-09T17:42:13.730Z,25.73
2023-12-09T17:44:41.186Z,32.33
2023-12-09T17:47:08.575Z,22.48
2023-12-09T17:49:36.125Z,21.05
2023-12-09T17:52:03.639Z,21.30
2023-12-09T17:54:31.280Z,18.83
2023-12-09T17:56:58.628Z,16.88
2023-12-09T17:59:26.167Z,15.82
2023-12-09T18:01:54.395Z,18.85
2023-12-09T18:06:49.113Z,21.63
2023-12-09T18:09:16.624Z,20.95
2023-12-09T18:11:44.240Z,19.77
2023-12-09T18:14:11.651Z,19.35
2023-12-09T18:16:39.103Z,17.10
2023-12-09T18:19:06.740Z,20.20
2023-12-09T18:21:34.593Z,17.40
2023-12-09T18:24:02.275Z,20.15
2023-12-09T18:26:32.861Z,22.70
2023-12-09T18:29:01.073Z,23.92
2023-12-09T18:31:29.207Z,22.60
2023-12-09T18:33:57.734Z,23.17
2023-12-09T18:36:25.467Z,20.70
2023-12-09T18:38:53.009Z,19.98
2023-12-09T18:41:20.543Z,22.27
2023-12-09T18:43:50.125Z,20.98
2023-12-09T18:46:17.967Z,21.42
2023-12-09T18:48:45.648Z,23.73
2023-12-09T18:51:13.184Z,20.85
2023-12-09T18:53:40.585Z,19.98
2023-12-09T18:56:08.285Z,20.60
2023-12-09T18:58:35.749Z,23.17
2023-12-09T19:01:08.040Z,17.60
2023-12-09T19:03:39.324Z,20.58
2023-12-09T19:06:07.513Z,19.38
2023-12-09T19:08:35.164Z,21.65
2023-12-09T19:11:02.578Z,18.05
2023-12-09T19:13:30.037Z,21.80
2023-12-09T19:15:59.736Z,19.55
2023-12-09T19:18:27.277Z,21.45
2023-12-09T19:20:54.729Z,23.63
2023-12-09T19:23:22.164Z,22.88
2023-12-09T19:25:49.636Z,21.95
2023-12-09T19:28:17.281Z,20.20
2023-12-09T19:30:44.728Z,23.38
2023-12-09T19:33:12.544Z,23.17
2023-12-09T19:35:40.059Z,24.42
2023-12-09T19:38:07.587Z,22.15
2023-12-09T19:40:35.760Z,23.35
2023-12-09T19:45:30.336Z,22.13
2023-12-09T19:47:58.928Z,22.45
2023-12-09T19:50:26.337Z,25.38
2023-12-09T19:52:53.916Z,23.15
2023-12-09T19:55:21.432Z,20.63
2023-12-09T19:57:49.025Z,25.85
2023-12-09T20:00:16.651Z,20.60
2023-12-09T20:02:45.766Z,23.17
2023-12-09T20:05:13.908Z,23.55
2023-12-09T20:07:41.376Z,22.48
2023-12-09T20:10:09.390Z,24.92
2023-12-09T20:12:36.782Z,22.40
2023-12-09T20:15:07.663Z,21.23
2023-12-09T20:17:35.307Z,21.02
2023-12-09T20:20:02.825Z,20.15
2023-12-09T20:22:31.827Z,21.50
2023-12-09T20:24:59.436Z,22.35
2023-12-09T20:27:26.978Z,19.60
2023-12-09T20:29:55.521Z,21.00
2023-12-09T20:32:23.298Z,21.48
2023-12-09T20:34:50.852Z,20.90
2023-12-09T20:37:18.427Z,20.88
2023-12-09T20:39:45.822Z,23.92
2023-12-09T20:42:13.402Z,25.95
2023-12-09T20:44:41.584Z,23.83
2023-12-09T20:49:37.359Z,24.65
2023-12-09T20:52:05.177Z,22.10
2023-12-09T20:54:32.643Z,22.67
2023-12-09T20:57:00.182Z,20.50
2023-12-09T20:59:27.728Z,26.08
2023-12-09T21:01:57.043Z,24.83
2023-12-09T21:04:24.656Z,24.20
2023-12-09T21:06:52.443Z,28.33
2023-12-09T21:09:22.570Z,27.17
2023-12-09T21:11:50.123Z,23.25
2023-12-09T21:14:17.878Z,26.05
2023-12-09T21:16:45.290Z,25.25
2023-12-09T21:19:13.248Z,23.00
2023-12-09T21:21:40.992Z,24.38
2023-12-09T21:24:08.632Z,22.98
2023-12-09T21:26:39.265Z,25.23
2023-12-09T21:29:08.074Z,23.80
2023-12-09T21:31:35.466Z,27.15
2023-12-09T21:34:03.838Z,27.08
2023-12-09T21:36:31.331Z,27.38
2023-12-09T21:38:58.789Z,24.98
2023-12-09T21:41:26.121Z,25.38
2023-12-09T21:43:53.548Z,25.23
2023-12-09T21:46:21.568Z,25.23
2023-12-09T21:51:17.938Z,26.35
2023-12-09T21:53:45.665Z,27.98
2023-12-09T21:56:26.298Z,26.45
2023-12-09T21:58:54.151Z,26.08
2023-12-09T22:01:22.279Z,23.50
2023-12-09T22:03:50.629Z,24.02
2023-12-09T22:08:45.757Z,27.20
2023-12-09T22:11:13.690Z,26.55
2023-12-09T22:13:41.826Z,26.23
2023-12-09T22:16:09.669Z,24.25
2023-12-09T22:18:37.690Z,27.00
2023-12-09T22:21:05.428Z,28.65
2023-12-09T22:23:32.801Z,22.17
2023-12-09T22:26:00.240Z,25.50
2023-12-09T22:28:31.698Z,25.00
2023-12-09T22:30:59.171Z,26.08
2023-12-09T22:33:26.634Z,25.85
2023-12-09T22:35:54.191Z,27.52
2023-12-09T22:38:21.476Z,25.85
2023-12-09T22:40:49.042Z,28.80
2023-12-09T22:43:16.457Z,25.42
2023-12-09T22:45:43.863Z,22.52
2023-12-09T22:48:11.683Z,26.75
2023-12-09T22:50:39.126Z,29.08
2023-12-09T22:53:06.578Z,30.08
2023-12-09T22:55:34.332Z,26.02
2023-12-09T22:58:01.701Z,26.33
2023-12-09T23:00:33.292Z,27.58
2023-12-09T23:03:02.867Z,26.00
2023-12-09T23:05:30.290Z,30.92
2023-12-09T23:07:58.284Z,27.65
2023-12-09T23:10:25.875Z,28.30
2023-12-09T23:12:53.394Z,28.38
2023-12-09T23:15:22.353Z,24.63
2023-12-09T23:17:50.183Z,25.83
2023-12-09T23:20:17.683Z,32.35
2023-12-09T23:22:45.111Z,29.77
2023-12-09T23:25:12.512Z,26.38
2023-12-09T23:27:39.907Z,28.58
2023-12-09T23:30:08.049Z,26.92
2023-12-09T23:35:02.760Z,27.40
2023-12-09T23:37:30.319Z,25.70
2023-12-09T23:39:57.660Z,30.85
2023-12-09T23:42:25.100Z,28.27
2023-12-09T23:44:52.367Z,28.15
2023-12-09T23:47:19.858Z,26.58
2023-12-09T23:49:47.423Z,24.08
2023-12-09T23:52:14.973Z,26.38
2023-12-09T23:54:42.515Z,25.17
2023-12-09T23:57:10.122Z,28.23
2023-12-09T23:59:37.439Z,26.45
